Time;durP1;ratioP1;P1;durP2;ratioP2;P2;SDS_P1;SDS_P2;PMS_P1;PMS_P2;Temp;Humidity;BMP_temperature;BMP_pressure;BME280_temperature;BME280_humidity;BME280_pressure;Samples;Min_cycle;Max_cycle;Signal;HPM_P1;HPM_P2
2021/06/19 00:01:46;;;;;;;10.32;8.00;;;26.20;55.00;;;;;;5095482;27;20491;-67
2021/06/19 00:04:31;;;;;;;9.13;7.70;;;26.20;55.00;;;;;;5092008;27;20115;-67
2021/06/19 00:07:17;;;;;;;9.40;7.97;;;26.20;55.20;;;;;;5109643;28;20035;-66
2021/06/19 00:10:05;;;;;;;9.95;8.00;;;26.10;55.30;;;;;;5101116;28;20084;-67
2021/06/19 00:12:51;;;;;;;9.50;8.27;;;26.10;55.40;;;;;;5113537;27;20023;-67
2021/06/19 00:15:37;;;;;;;8.68;7.72;;;26.00;55.40;;;;;;5116093;27;20035;-66
2021/06/19 00:18:24;;;;;;;8.60;7.63;;;26.00;55.60;;;;;;5116803;27;20034;-67
2021/06/19 00:21:09;;;;;;;15.48;8.45;;;26.00;55.70;;;;;;5110136;28;20020;-67
2021/06/19 00:23:55;;;;;;;8.15;7.22;;;26.00;55.90;;;;;;5093016;28;20116;-67
2021/06/19 00:26:41;;;;;;;8.98;8.10;;;25.90;55.90;;;;;;5117706;27;20035;-66
2021/06/19 00:29:27;;;;;;;9.52;7.15;;;25.90;56.10;;;;;;5112562;27;20031;-66
2021/06/19 00:32:12;;;;;;;9.30;8.10;;;25.90;56.30;;;;;;5130388;27;20028;-67
2021/06/19 00:34:58;;;;;;;9.32;8.30;;;25.90;56.50;;;;;;5114637;27;20026;-67
2021/06/19 00:37:47;;;;;;;8.82;7.93;;;25.80;56.70;;;;;;5111871;28;20403;-67
2021/06/19 00:40:33;;;;;;;9.00;7.88;;;25.80;56.90;;;;;;5097245;28;20110;-67
2021/06/19 00:43:18;;;;;;;10.27;8.27;;;25.70;57.10;;;;;;5110999;28;20046;-67
2021/06/19 00:46:04;;;;;;;10.82;7.32;;;25.70;57.20;;;;;;5110280;28;20035;-67
2021/06/19 00:48:50;;;;;;;10.20;8.63;;;25.60;57.40;;;;;;5110344;28;20038;-66
2021/06/19 00:51:36;;;;;;;8.68;7.78;;;25.60;57.50;;;;;;5109335;28;20032;-66
2021/06/19 00:54:22;;;;;;;11.20;7.50;;;25.60;57.80;;;;;;5122072;27;20040;-67
2021/06/19 00:57:08;;;;;;;9.15;8.25;;;25.60;57.90;;;;;;5127997;27;20504;-67
2021/06/19 00:59:57;;;;;;;8.70;7.88;;;25.60;58.10;;;;;;5130678;27;20360;-67
2021/06/19 01:02:44;;;;;;;10.75;7.90;;;25.50;58.30;;;;;;5116037;27;20027;-67
2021/06/19 01:05:31;;;;;;;9.50;8.50;;;25.50;58.50;;;;;;5113670;27;20031;-67
2021/06/19 01:08:17;;;;;;;11.13;8.18;;;25.40;58.50;;;;;;5126285;27;20053;-67
2021/06/19 01:11:03;;;;;;;9.88;8.57;;;25.40;58.60;;;;;;5119196;27;20038;-67
2021/06/19 01:13:50;;;;;;;8.77;7.88;;;25.40;58.80;;;;;;5123648;27;20030;-67
2021/06/19 01:16:36;;;;;;;8.65;7.68;;;25.40;59.10;;;;;;5110069;28;20039;-67
2021/06/19 01:19:22;;;;;;;10.95;8.63;;;25.30;59.10;;;;;;5123798;27;20068;-67
2021/06/19 01:22:10;;;;;;;10.32;8.02;;;25.30;59.20;;;;;;5107703;28;20028;-67
2021/06/19 01:25:00;;;;;;;9.32;8.00;;;25.30;59.40;;;;;;5108621;28;20070;-67
2021/06/19 01:27:48;;;;;;;10.77;7.97;;;25.20;59.70;;;;;;5076219;28;20036;-67
2021/06/19 01:30:34;;;;;;;9.82;8.88;;;25.20;60.00;;;;;;5097934;28;20038;-67
2021/06/19 01:33:20;;;;;;;9.65;8.13;;;25.20;60.00;;;;;;5117912;27;20032;-66
2021/06/19 01:36:07;;;;;;;10.27;8.30;;;25.20;60.20;;;;;;5116895;27;20035;-66
2021/06/19 01:38:55;;;;;;;11.57;9.38;;;25.20;60.40;;;;;;5110427;28;20587;-66
2021/06/19 01:41:41;;;;;;;9.43;8.52;;;25.10;60.50;;;;;;5109610;28;20484;-66
2021/06/19 01:44:26;;;;;;;10.90;7.80;;;25.10;60.80;;;;;;5109558;28;20028;-66
2021/06/19 01:47:12;;;;;;;11.02;8.65;;;25.10;61.00;;;;;;5124692;27;20035;-67
2021/06/19 01:49:58;;;;;;;10.88;8.70;;;25.00;61.00;;;;;;5099369;28;20067;-66
2021/06/19 01:52:44;;;;;;;10.60;8.38;;;25.00;61.20;;;;;;5101501;27;20016;-67
2021/06/19 01:55:30;;;;;;;10.85;8.25;;;25.00;61.40;;;;;;5098879;27;20039;-66
2021/06/19 01:58:16;;;;;;;11.00;8.07;;;24.90;61.60;;;;;;5113050;27;20121;-67
2021/06/19 02:01:04;;;;;;;10.77;7.97;;;24.90;61.80;;;;;;5094766;27;20021;-67
2021/06/19 02:03:50;;;;;;;9.88;8.88;;;24.90;62.00;;;;;;5122270;27;20157;-67
2021/06/19 02:06:36;;;;;;;10.77;7.80;;;24.90;62.10;;;;;;5104863;27;20498;-65
2021/06/19 02:09:22;;;;;;;9.55;8.30;;;24.90;62.40;;;;;;5114951;27;20050;-67
2021/06/19 02:12:08;;;;;;;10.82;8.20;;;24.80;62.40;;;;;;5105075;27;20023;-67
2021/06/19 02:14:54;;;;;;;8.98;7.93;;;24.80;62.60;;;;;;5127254;27;20027;-67
2021/06/19 02:17:40;;;;;;;9.27;8.27;;;24.80;62.70;;;;;;5128414;27;20023;-67
2021/06/19 02:20:27;;;;;;;9.48;8.57;;;24.70;62.80;;;;;;5115255;27;20030;-67
2021/06/19 02:23:13;;;;;;;10.50;8.38;;;24.70;63.00;;;;;;5120278;27;20571;-67
2021/06/19 02:25:58;;;;;;;8.80;7.88;;;24.70;63.10;;;;;;5124549;27;20533;-67
2021/06/19 02:28:44;;;;;;;9.98;8.05;;;24.70;63.50;;;;;;5106475;27;20046;-67
2021/06/19 02:31:30;;;;;;;9.43;8.43;;;24.60;63.60;;;;;;5130769;27;20023;-67
2021/06/19 02:34:16;;;;;;;9.57;8.68;;;24.60;63.70;;;;;;5095413;27;20050;-67
2021/06/19 02:37:03;;;;;;;11.15;8.48;;;24.60;63.90;;;;;;5129618;27;20351;-67
2021/06/19 02:39:48;;;;;;;11.20;9.18;;;24.50;63.90;;;;;;5120620;27;20035;-65
2021/06/19 02:42:35;;;;;;;13.88;8.98;;;24.50;64.10;;;;;;5110435;28;20016;-66
2021/06/19 02:45:21;;;;;;;10.32;9.27;;;24.50;64.50;;;;;;5106673;28;20103;-68
2021/06/19 02:48:07;;;;;;;10.27;8.52;;;24.40;64.60;;;;;;5125198;27;20410;-66
2021/06/19 02:50:54;;;;;;;9.77;7.90;;;24.40;64.80;;;;;;5110945;28;20073;-65
2021/06/19 02:53:39;;;;;;;11.57;8.95;;;24.40;65.00;;;;;;5103815;28;20032;-66
2021/06/19 02:56:25;;;;;;;10.77;8.70;;;24.40;65.10;;;;;;5089849;28;20395;-66
2021/06/19 02:59:11;;;;;;;9.40;8.40;;;24.40;65.30;;;;;;5107640;28;20491;-66
2021/06/19 03:01:57;;;;;;;10.30;8.85;;;24.40;65.40;;;;;;5110967;28;20453;-66
2021/06/19 03:04:43;;;;;;;10.00;9.00;;;24.40;65.60;;;;;;5120053;28;20106;-66
2021/06/19 03:07:28;;;;;;;10.13;9.10;;;24.40;65.90;;;;;;5115599;28;20114;-66
2021/06/19 03:10:24;;;;;;;9.52;8.43;;;24.40;65.90;;;;;;5107884;28;20046;-66
2021/06/19 03:13:10;;;;;;;11.38;8.27;;;24.30;66.10;;;;;;5109234;28;20024;-66
2021/06/19 03:15:56;;;;;;;12.02;8.75;;;24.30;66.10;;;;;;5093377;28;20031;-66
2021/06/19 03:18:42;;;;;;;10.73;8.73;;;24.30;66.30;;;;;;5108666;28;20039;-66
2021/06/19 03:21:27;;;;;;;10.50;8.73;;;24.30;66.70;;;;;;5109755;28;20028;-67
2021/06/19 03:24:13;;;;;;;10.70;9.13;;;24.30;66.70;;;;;;5108359;28;20503;-66
2021/06/19 03:26:59;;;;;;;13.45;9.20;;;24.30;66.70;;;;;;5109249;28;20030;-66
2021/06/19 03:29:45;;;;;;;10.05;9.02;;;24.30;67.00;;;;;;5109347;28;20067;-67
2021/06/19 03:32:31;;;;;;;14.73;8.68;;;24.30;67.30;;;;;;5113591;28;20019;-67
2021/06/19 03:35:18;;;;;;;10.38;9.27;;;24.30;67.30;;;;;;5113720;28;20027;-66
2021/06/19 03:38:07;;;;;;;10.48;9.38;;;24.30;67.60;;;;;;5108867;28;20043;-68
2021/06/19 03:40:53;;;;;;;10.77;9.68;;;24.30;67.40;;;;;;5107758;28;20066;-67
2021/06/19 03:43:39;;;;;;;12.15;8.55;;;24.30;67.60;;;;;;5093206;28;20511;-67
2021/06/19 03:46:24;;;;;;;10.00;8.63;;;24.30;67.90;;;;;;5093613;28;20523;-67
2021/06/19 03:49:10;;;;;;;11.55;9.15;;;24.30;68.10;;;;;;5111181;28;20043;-67
2021/06/19 03:51:56;;;;;;;13.05;9.68;;;24.30;68.10;;;;;;5112515;27;20103;-67
2021/06/19 03:54:42;;;;;;;12.50;8.57;;;24.40;68.20;;;;;;5124296;27;20023;-68
2021/06/19 03:57:32;;;;;;;10.73;9.10;;;24.40;68.40;;;;;;5112494;28;20027;-67
2021/06/19 04:00:19;;;;;;;9.70;8.68;;;24.40;68.50;;;;;;5096726;28;20408;-67
2021/06/19 04:03:05;;;;;;;12.00;9.50;;;24.40;68.60;;;;;;5113563;27;20131;-67
2021/06/19 04:05:50;;;;;;;13.10;10.73;;;24.40;68.50;;;;;;5128989;27;20399;-67
2021/06/19 04:08:36;;;;;;;11.07;9.40;;;24.50;68.50;;;;;;5125473;27;20540;-68
2021/06/19 04:11:22;;;;;;;12.05;9.68;;;24.50;68.60;;;;;;5114114;28;20028;-67
2021/06/19 04:14:08;;;;;;;11.18;10.07;;;24.50;68.70;;;;;;5126002;27;20040;-68
2021/06/19 04:16:54;;;;;;;12.48;10.27;;;24.50;68.90;;;;;;5112025;28;20019;-67
2021/06/19 04:19:41;;;;;;;11.07;9.35;;;24.50;69.10;;;;;;5129736;27;20521;-66
2021/06/19 04:22:27;;;;;;;10.63;9.50;;;24.50;69.10;;;;;;5131248;27;20023;-66
2021/06/19 04:25:15;;;;;;;14.93;10.35;;;24.60;69.30;;;;;;5124802;27;20123;-66
2021/06/19 04:28:00;;;;;;;10.38;9.38;;;24.60;69.10;;;;;;5120767;27;20061;-66
2021/06/19 04:30:46;;;;;;;12.55;9.88;;;24.60;69.20;;;;;;5112570;28;20038;-66
2021/06/19 04:33:32;;;;;;;12.80;10.10;;;24.60;69.50;;;;;;5112571;28;20027;-66
2021/06/19 04:36:19;;;;;;;11.60;9.88;;;24.60;69.60;;;;;;5111958;28;20031;-67
2021/06/19 04:39:05;;;;;;;11.85;9.40;;;24.70;69.50;;;;;;5125371;27;20031;-67
2021/06/19 04:41:55;;;;;;;17.42;10.38;;;24.70;69.60;;;;;;5111208;28;20046;-67
2021/06/19 04:47:39;;;;;;;11.25;10.05;;;24.80;70.20;;;;;;5110964;28;20073;-67
2021/06/19 04:50:25;;;;;;;11.00;9.90;;;24.80;70.40;;;;;;5109906;28;20047;-67
2021/06/19 04:53:13;;;;;;;11.77;10.20;;;24.80;70.20;;;;;;5102701;28;20036;-67
2021/06/19 04:56:03;;;;;;;10.50;9.38;;;24.90;70.20;;;;;;5127249;27;20819;-67
2021/06/19 04:58:48;;;;;;;11.60;9.50;;;24.90;70.10;;;;;;5111909;27;20392;-60
2021/06/19 05:01:34;;;;;;;12.30;10.07;;;25.00;69.60;;;;;;5099119;28;20031;-61
2021/06/19 05:04:20;;;;;;;14.57;9.70;;;25.30;69.20;;;;;;5112464;27;20043;-58
2021/06/19 05:07:06;;;;;;;11.95;10.75;;;25.50;68.70;;;;;;5129706;27;20027;-57
2021/06/19 05:09:52;;;;;;;11.30;8.88;;;25.60;68.60;;;;;;5120781;27;20088;-58
2021/06/19 05:12:42;;;;;;;11.70;9.32;;;25.70;67.60;;;;;;5117066;27;20061;-57
2021/06/19 05:15:28;;;;;;;13.60;10.68;;;25.80;67.40;;;;;;5129909;27;20062;-57
2021/06/19 05:18:14;;;;;;;9.98;8.98;;;25.90;67.20;;;;;;5121828;27;20106;-57
2021/06/19 05:21:00;;;;;;;9.90;8.75;;;26.00;67.20;;;;;;5127618;27;20026;-57
2021/06/19 05:23:45;;;;;;;9.13;7.88;;;26.10;66.70;;;;;;5129017;27;20402;-58
2021/06/19 05:26:31;;;;;;;9.55;8.43;;;26.20;65.70;;;;;;5126534;27;20441;-57
2021/06/19 05:29:18;;;;;;;8.65;7.72;;;26.30;65.20;;;;;;5127208;27;20112;-56
2021/06/19 05:32:04;;;;;;;9.45;8.32;;;26.40;64.50;;;;;;5097794;27;20106;-56
2021/06/19 05:34:51;;;;;;;11.50;8.63;;;26.60;64.20;;;;;;5120245;27;20038;-57
2021/06/19 05:37:37;;;;;;;11.15;8.48;;;26.70;64.30;;;;;;5123346;27;20020;-57
2021/06/19 05:40:23;;;;;;;9.73;8.70;;;26.70;64.60;;;;;;5120961;27;20027;-57
2021/06/19 05:43:09;;;;;;;10.63;8.52;;;26.80;64.20;;;;;;5115688;27;20066;-57
2021/06/19 05:45:54;;;;;;;9.15;7.20;;;26.80;64.30;;;;;;5111071;27;20015;-56
2021/06/19 05:48:40;;;;;;;10.50;8.98;;;26.80;63.50;;;;;;5124365;27;20034;-56
2021/06/19 05:51:26;;;;;;;11.85;10.07;;;26.90;63.80;;;;;;5110591;27;20043;-56
2021/06/19 05:54:12;;;;;;;11.45;9.00;;;27.00;64.00;;;;;;5103102;27;20039;-54
2021/06/19 05:56:58;;;;;;;9.43;8.52;;;27.10;63.70;;;;;;5128872;27;20019;-57
2021/06/19 05:59:43;;;;;;;10.85;8.68;;;27.10;63.60;;;;;;5114836;27;20055;-56
2021/06/19 06:02:29;;;;;;;10.75;8.35;;;27.10;63.70;;;;;;5110203;28;20035;-56
2021/06/19 06:05:15;;;;;;;8.73;7.75;;;27.20;62.60;;;;;;5108119;28;20032;-56
2021/06/19 06:08:01;;;;;;;10.73;7.57;;;27.30;62.20;;;;;;5109263;28;20028;-53
2021/06/19 06:10:47;;;;;;;9.70;8.52;;;27.30;62.00;;;;;;5113545;27;20079;-56
2021/06/19 06:13:33;;;;;;;10.60;8.70;;;27.40;62.30;;;;;;5130573;27;20034;-56
2021/06/19 06:16:19;;;;;;;12.45;8.32;;;27.40;62.70;;;;;;5123210;27;20031;-56
2021/06/19 06:19:05;;;;;;;9.38;8.38;;;27.50;61.90;;;;;;5111200;27;20043;-56
2021/06/19 06:21:52;;;;;;;10.00;8.98;;;27.60;61.30;;;;;;5108831;28;20058;-55
2021/06/19 06:24:38;;;;;;;8.70;7.85;;;27.60;61.90;;;;;;5112986;27;20125;-55
2021/06/19 06:27:24;;;;;;;9.77;8.07;;;27.70;61.20;;;;;;5108068;27;20030;-54
2021/06/19 06:30:10;;;;;;;9.82;8.82;;;27.80;61.30;;;;;;5112243;27;20196;-56
2021/06/19 06:32:56;;;;;;;8.85;8.00;;;27.80;62.10;;;;;;5105785;27;20391;-54
2021/06/19 06:35:42;;;;;;;9.77;8.05;;;27.90;61.50;;;;;;5105502;28;20023;-57
2021/06/19 06:38:28;;;;;;;9.45;8.65;;;27.90;61.50;;;;;;5112636;27;20031;-56
2021/06/19 06:41:14;;;;;;;12.40;8.93;;;28.00;62.00;;;;;;5109408;27;20540;-69
2021/06/19 06:44:00;;;;;;;11.77;8.43;;;28.00;62.60;;;;;;5105143;27;20579;-71
2021/06/19 06:46:46;;;;;;;11.43;8.23;;;28.00;63.10;;;;;;5108337;27;20028;-71
2021/06/19 06:49:32;;;;;;;15.25;8.30;;;28.10;61.80;;;;;;5107221;28;20115;-74
2021/06/19 06:52:18;;;;;;;10.90;9.35;;;28.20;61.70;;;;;;5114250;27;20320;-74
2021/06/19 06:55:05;;;;;;;11.20;8.02;;;28.20;61.70;;;;;;5108912;27;20019;-75
2021/06/19 06:57:51;;;;;;;7.75;6.53;;;28.30;61.30;;;;;;5100281;28;20024;-75
2021/06/19 07:00:37;;;;;;;12.02;7.88;;;28.40;61.00;;;;;;5107697;28;20464;-75
2021/06/19 07:03:23;;;;;;;9.73;7.00;;;28.40;60.90;;;;;;5103287;28;20506;-75
2021/06/19 07:06:09;;;;;;;11.60;8.10;;;28.50;60.90;;;;;;5129152;28;20113;-75
2021/06/19 07:08:55;;;;;;;9.70;7.55;;;28.60;60.50;;;;;;5127972;28;20043;-75
2021/06/19 07:11:41;;;;;;;8.63;7.72;;;28.60;60.70;;;;;;5075694;28;20476;-74
2021/06/19 07:14:26;;;;;;;8.60;7.70;;;28.70;60.90;;;;;;5093219;28;20507;-75
2021/06/19 07:17:12;;;;;;;11.38;7.53;;;28.70;60.30;;;;;;5108962;28;20015;-75
2021/06/19 07:19:58;;;;;;;8.18;6.97;;;28.80;60.00;;;;;;5094505;28;20482;-75
2021/06/19 07:22:45;;;;;;;9.38;8.48;;;28.90;60.70;;;;;;5111674;27;20483;-75
2021/06/19 07:25:31;;;;;;;9.48;7.50;;;29.00;59.70;;;;;;5131401;27;20027;-75
2021/06/19 07:28:16;;;;;;;11.75;7.40;;;29.00;59.80;;;;;;5128303;27;20030;-75
2021/06/19 07:31:02;;;;;;;10.77;7.97;;;29.10;59.60;;;;;;5116400;27;20023;-76
2021/06/19 07:33:48;;;;;;;9.75;6.68;;;29.20;59.10;;;;;;5097047;28;20040;-75
2021/06/19 07:36:35;;;;;;;9.52;7.50;;;29.20;58.90;;;;;;5096470;28;20027;-76
2021/06/19 07:39:23;;;;;;;7.57;6.78;;;29.30;58.50;;;;;;5103623;28;20667;-75
2021/06/19 07:42:09;;;;;;;9.32;7.57;;;29.40;58.60;;;;;;5115078;27;20603;-76
2021/06/19 07:44:55;;;;;;;8.73;7.35;;;29.40;58.00;;;;;;5121433;27;20024;-78
2021/06/19 07:47:41;;;;;;;7.72;6.82;;;29.50;58.10;;;;;;5110370;27;20030;-76
2021/06/19 07:50:27;;;;;;;11.35;7.10;;;29.50;58.10;;;;;;5113571;27;20039;-78
2021/06/19 07:53:12;;;;;;;8.60;7.28;;;29.60;57.70;;;;;;5112852;27;20030;-78
2021/06/19 07:55:58;;;;;;;6.28;5.68;;;29.70;57.80;;;;;;5114344;27;20027;-78
2021/06/19 07:58:44;;;;;;;9.50;7.05;;;29.70;57.70;;;;;;5109265;27;20088;-78
2021/06/19 08:01:30;;;;;;;8.38;7.45;;;29.90;57.60;;;;;;5090109;28;20499;-77
2021/06/19 08:04:16;;;;;;;11.05;7.25;;;30.00;57.80;;;;;;5096790;28;20059;-78
2021/06/19 08:07:03;;;;;;;8.80;6.93;;;30.10;57.40;;;;;;5113109;28;20020;-77
2021/06/19 08:09:49;;;;;;;7.80;7.00;;;30.10;57.40;;;;;;5106743;27;20055;-77
2021/06/19 08:12:35;;;;;;;7.65;6.45;;;30.20;57.20;;;;;;5099715;28;20020;-77
2021/06/19 08:15:22;;;;;;;10.23;6.85;;;30.30;57.10;;;;;;5110398;28;20554;-77
2021/06/19 08:18:08;;;;;;;8.60;7.30;;;30.30;56.60;;;;;;5104363;28;20028;-78
2021/06/19 08:20:54;;;;;;;8.75;7.15;;;30.40;56.90;;;;;;5118801;27;20119;-77
2021/06/19 08:23:41;;;;;;;11.70;7.43;;;30.50;56.90;;;;;;5111742;27;20348;-77
2021/06/19 08:26:27;;;;;;;10.30;7.55;;;30.60;56.20;;;;;;5093712;28;20036;-77
2021/06/19 08:29:13;;;;;;;13.20;8.00;;;30.60;56.20;;;;;;5125434;27;20042;-77
2021/06/19 08:31:59;;;;;;;9.18;7.38;;;30.80;56.30;;;;;;5111989;28;20039;-76
2021/06/19 08:34:45;;;;;;;9.20;7.07;;;30.80;55.60;;;;;;5100092;28;20039;-77
2021/06/19 08:37:31;;;;;;;8.82;7.57;;;30.90;55.90;;;;;;5104619;28;20020;-78
2021/06/19 08:40:17;;;;;;;10.02;7.40;;;31.00;55.50;;;;;;5109313;28;20072;-78
2021/06/19 08:43:03;;;;;;;8.98;7.20;;;31.10;55.50;;;;;;5112615;28;20119;-77
2021/06/19 08:45:51;;;;;;;7.65;6.85;;;31.20;55.10;;;;;;5110652;28;20088;-78
2021/06/19 08:48:38;;;;;;;8.02;7.32;;;31.30;54.80;;;;;;5109789;28;20035;-77
2021/06/19 08:51:25;;;;;;;7.50;6.80;;;31.40;54.60;;;;;;5112549;28;20450;-77
2021/06/19 08:54:12;;;;;;;7.97;6.72;;;31.50;54.10;;;;;;5112994;28;20038;-78
2021/06/19 08:56:58;;;;;;;8.88;6.68;;;31.60;53.90;;;;;;5112753;28;20031;-78
2021/06/19 08:59:49;;;;;;;7.60;6.65;;;31.70;53.30;;;;;;5113815;28;20062;-76
2021/06/19 09:02:35;;;;;;;8.98;7.00;;;31.70;53.00;;;;;;5111848;28;20031;-77
2021/06/19 09:05:26;;;;;;;11.35;6.88;;;31.80;52.80;;;;;;5098497;28;20499;-77
2021/06/19 09:08:12;;;;;;;8.57;6.22;;;31.80;52.50;;;;;;5110535;28;20024;-77
2021/06/19 09:10:58;;;;;;;9.38;7.03;;;31.90;52.00;;;;;;5083016;28;20024;-74
2021/06/19 09:13:58;;;;;;;7.43;6.28;;;32.00;52.00;;;;;;5094864;28;20063;-76
2021/06/19 09:16:55;;;;;;;8.90;6.10;;;32.10;51.90;;;;;;5099119;28;20035;-77
2021/06/19 09:19:43;;;;;;;6.15;5.55;;;32.20;51.30;;;;;;5112300;28;20507;-76
2021/06/19 09:22:29;;;;;;;7.60;5.20;;;32.30;49.10;;;;;;5107996;28;20031;-77
2021/06/19 09:25:16;;;;;;;7.25;5.95;;;32.40;48.90;;;;;;5110164;28;20438;-77
2021/06/19 09:28:06;;;;;;;8.25;5.57;;;32.50;48.50;;;;;;5109546;28;20100;-77
2021/06/19 09:30:51;;;;;;;6.80;5.40;;;32.60;48.60;;;;;;5108960;27;20070;-77
2021/06/19 09:33:40;;;;;;;6.88;6.18;;;32.60;48.70;;;;;;5105196;28;20012;-77
2021/06/19 09:36:49;;;;;;;6.38;5.75;;;32.70;48.10;;;;;;5102950;28;20028;-76
2021/06/19 09:39:36;;;;;;;8.00;5.22;;;32.80;48.60;;;;;;5090639;28;20104;-77
2021/06/19 09:42:24;;;;;;;7.15;5.43;;;32.90;48.40;;;;;;5105277;28;20068;-77
2021/06/19 09:45:21;;;;;;;9.75;6.30;;;33.00;48.40;;;;;;5113156;28;20123;-76
2021/06/19 09:48:27;;;;;;;6.20;5.55;;;33.10;47.90;;;;;;5108379;28;20039;-76
2021/06/19 09:51:18;;;;;;;6.97;5.35;;;33.20;47.50;;;;;;5093264;28;20122;-77
2021/06/19 09:54:07;;;;;;;7.38;5.55;;;33.30;46.80;;;;;;5110895;28;20051;-77
2021/06/19 09:56:55;;;;;;;6.05;5.45;;;33.30;46.70;;;;;;5110620;28;20019;-77
2021/06/19 09:59:41;;;;;;;5.82;5.32;;;33.40;45.90;;;;;;5108545;28;20491;-77
2021/06/19 10:02:27;;;;;;;8.13;5.53;;;33.50;44.70;;;;;;5107377;28;20027;-77
2021/06/19 10:05:13;;;;;;;7.90;5.32;;;33.60;44.60;;;;;;5109439;28;20047;-76
2021/06/19 10:07:59;;;;;;;5.80;5.20;;;33.80;44.70;;;;;;5110153;28;20131;-76
2021/06/19 10:10:47;;;;;;;8.27;5.25;;;33.80;43.70;;;;;;5109402;28;20063;-74
2021/06/19 10:13:35;;;;;;;8.07;5.35;;;33.90;43.60;;;;;;5085469;28;20031;-77
2021/06/19 10:16:23;;;;;;;6.40;4.95;;;34.00;43.70;;;;;;5096140;28;20032;-76
2021/06/19 10:19:09;;;;;;;6.78;5.40;;;34.10;43.40;;;;;;5113794;28;20434;-76
2021/06/19 10:21:56;;;;;;;5.65;5.07;;;34.10;42.70;;;;;;5111648;28;20023;-77
2021/06/19 10:24:45;;;;;;;9.05;5.10;;;34.20;42.60;;;;;;5110744;28;20035;-76
2021/06/19 10:27:33;;;;;;;7.95;5.85;;;34.20;42.90;;;;;;5104233;28;20052;-76
2021/06/19 10:30:23;;;;;;;14.00;6.65;;;34.30;42.60;;;;;;5108788;28;20032;-76
2021/06/19 10:33:29;;;;;;;6.78;5.72;;;34.30;43.00;;;;;;5095582;28;20395;-76
2021/06/19 10:36:15;;;;;;;6.55;5.32;;;34.40;42.30;;;;;;5090365;28;20521;-76
2021/06/19 10:39:01;;;;;;;5.30;4.80;;;34.50;42.90;;;;;;5107091;28;20051;-77
2021/06/19 10:41:51;;;;;;;6.22;4.97;;;34.60;42.30;;;;;;5104871;28;20617;-76
2021/06/19 10:44:52;;;;;;;7.03;5.05;;;34.60;41.80;;;;;;5104854;28;20384;-76
2021/06/19 10:48:00;;;;;;;5.07;4.57;;;34.70;42.20;;;;;;5103026;28;20027;-76
2021/06/19 10:50:50;;;;;;;8.20;5.20;;;34.80;41.30;;;;;;5099222;28;20027;-75
2021/06/19 10:54:09;;;;;;;6.72;4.80;;;34.70;41.00;;;;;;5107260;28;20030;-76
2021/06/19 10:56:59;;;;;;;5.28;4.78;;;34.80;42.00;;;;;;5108891;28;20039;-76
2021/06/19 10:59:45;;;;;;;9.60;6.13;;;34.90;41.70;;;;;;5100948;28;20042;-76
2021/06/19 11:02:52;;;;;;;6.30;5.70;;;34.90;42.10;;;;;;5110260;28;20034;-76
2021/06/19 11:05:44;;;;;;;6.03;5.43;;;35.00;42.20;;;;;;5105737;28;20774;-75
2021/06/19 11:09:13;;;;;;;8.30;5.25;;;35.00;42.10;;;;;;5103570;28;20574;-74
2021/06/19 11:12:02;;;;;;;8.27;5.50;;;35.10;42.40;;;;;;5096945;28;20028;-76
2021/06/19 11:14:55;;;;;;;8.43;5.18;;;35.10;42.10;;;;;;5107150;28;20501;-76
2021/06/19 11:17:43;;;;;;;6.18;5.13;;;35.10;41.70;;;;;;5115150;28;20031;-76
2021/06/19 11:20:31;;;;;;;6.88;5.63;;;35.20;42.10;;;;;;5113301;28;20051;-76
2021/06/19 11:23:17;;;;;;;7.97;5.72;;;35.20;42.40;;;;;;5128924;28;20063;-75
2021/06/19 11:26:08;;;;;;;8.50;6.03;;;35.20;41.60;;;;;;5120696;28;20499;-74
2021/06/19 11:28:54;;;;;;;6.30;5.68;;;35.30;42.30;;;;;;5100320;28;20038;-74
2021/06/19 11:31:40;;;;;;;6.47;5.80;;;35.30;42.20;;;;;;5107598;28;20473;-74
2021/06/19 11:34:39;;;;;;;8.43;5.40;;;35.40;41.60;;;;;;5112683;28;20032;-74
2021/06/19 11:37:52;;;;;;;6.93;5.43;;;35.40;41.70;;;;;;5112122;28;20496;-74
2021/06/19 11:40:39;;;;;;;6.47;5.65;;;35.50;42.20;;;;;;5110248;28;20446;-74
2021/06/19 11:43:29;;;;;;;6.50;5.90;;;35.50;41.60;;;;;;5094227;28;20039;-74
2021/06/19 11:46:21;;;;;;;6.18;5.30;;;35.60;41.80;;;;;;5088705;28;20029;-73
2021/06/19 11:49:09;;;;;;;7.18;5.72;;;35.60;41.80;;;;;;5115968;28;20515;-75
2021/06/19 11:51:56;;;;;;;7.68;5.97;;;35.60;41.90;;;;;;5079548;28;20030;-74
2021/06/19 11:54:44;;;;;;;7.80;5.55;;;35.70;41.90;;;;;;5094845;28;20024;-74
2021/06/19 11:57:30;;;;;;;6.97;6.03;;;35.70;42.30;;;;;;5115204;28;20023;-74
2021/06/19 12:00:20;;;;;;;8.15;6.40;;;35.70;42.20;;;;;;5107418;28;20028;-73
2021/06/19 12:03:05;;;;;;;7.07;6.00;;;35.70;42.00;;;;;;5102865;28;20022;-73
2021/06/19 12:05:51;;;;;;;9.20;5.75;;;35.80;41.80;;;;;;5109916;28;20031;-73
2021/06/19 12:08:38;;;;;;;7.38;6.05;;;35.80;42.20;;;;;;5102331;28;20031;-74
2021/06/19 12:11:26;;;;;;;6.30;5.70;;;35.80;42.10;;;;;;5108103;27;20034;-74
2021/06/19 12:14:30;;;;;;;7.50;6.38;;;35.80;42.10;;;;;;5092901;28;20020;-73
2021/06/19 12:17:16;;;;;;;7.97;6.05;;;35.80;41.90;;;;;;5102407;27;20027;-72
2021/06/19 12:20:02;;;;;;;6.93;5.97;;;35.80;41.60;;;;;;5122598;27;20036;-74
2021/06/19 12:22:48;;;;;;;10.57;6.40;;;35.90;41.70;;;;;;5108665;27;20649;-73
2021/06/19 12:25:35;;;;;;;7.15;5.55;;;35.90;41.70;;;;;;5107149;28;20032;-74
2021/06/19 12:28:23;;;;;;;8.45;6.45;;;36.00;41.50;;;;;;5124854;27;20027;-75
2021/06/19 12:31:09;;;;;;;5.75;5.25;;;36.20;41.70;;;;;;5108523;27;20123;-74
2021/06/19 12:34:00;;;;;;;9.43;5.75;;;36.40;40.40;;;;;;5111626;27;20095;-74
2021/06/19 12:36:47;;;;;;;8.25;6.15;;;36.50;40.60;;;;;;5104026;27;20038;-76
2021/06/19 12:39:33;;;;;;;7.28;6.55;;;36.70;40.50;;;;;;5116834;27;20032;-75
2021/06/19 12:42:35;;;;;;;6.85;6.15;;;36.80;40.10;;;;;;5129351;27;20100;-77
2021/06/19 12:45:25;;;;;;;7.43;6.20;;;37.00;40.40;;;;;;5125957;27;20058;-76
2021/06/19 12:48:29;;;;;;;8.77;6.30;;;37.00;40.10;;;;;;5107268;28;20022;-76
2021/06/19 12:51:25;;;;;;;7.73;6.47;;;37.10;40.20;;;;;;5107495;27;20531;-77
2021/06/19 12:54:28;;;;;;;8.45;7.32;;;37.30;40.30;;;;;;5124358;27;20024;-77
2021/06/19 12:57:18;;;;;;;7.10;6.40;;;37.40;39.90;;;;;;5112833;27;20039;-76
2021/06/19 13:00:09;;;;;;;8.25;6.68;;;37.40;39.60;;;;;;5097500;28;20028;-77
2021/06/19 13:02:55;;;;;;;7.40;6.13;;;37.30;39.30;;;;;;5108241;28;20403;-71
2021/06/19 13:05:49;;;;;;;7.20;6.50;;;37.30;39.70;;;;;;5100228;27;20562;-76
2021/06/19 13:08:35;;;;;;;6.90;5.95;;;37.30;39.30;;;;;;5078896;28;20488;-75
2021/06/19 13:11:30;;;;;;;6.70;6.03;;;37.30;39.80;;;;;;5102873;28;20085;-76
2021/06/19 13:14:18;;;;;;;7.65;6.35;;;37.40;39.80;;;;;;5111141;28;20051;-76
2021/06/19 13:17:15;;;;;;;7.13;6.10;;;37.40;39.80;;;;;;5119893;27;20032;-75
2021/06/19 13:20:01;;;;;;;9.55;6.55;;;37.50;39.70;;;;;;5111781;27;20058;-75
2021/06/19 13:23:02;;;;;;;7.45;6.75;;;37.50;40.20;;;;;;5104811;27;20040;-76
2021/06/19 13:25:52;;;;;;;7.70;6.03;;;37.50;40.20;;;;;;5104108;27;20063;-75
2021/06/19 13:29:00;;;;;;;6.97;6.28;;;37.50;39.20;;;;;;5099361;28;20039;-75
2021/06/19 13:31:49;;;;;;;8.98;7.00;;;37.50;39.50;;;;;;5097516;27;20085;-75
2021/06/19 13:34:38;;;;;;;9.23;6.72;;;37.50;40.00;;;;;;5102816;28;20028;-76
2021/06/19 13:37:33;;;;;;;8.00;7.20;;;37.50;40.20;;;;;;5109759;28;20088;-76
2021/06/19 13:40:26;;;;;;;7.18;6.47;;;37.40;40.40;;;;;;5112765;28;20024;-75
2021/06/19 13:43:12;;;;;;;10.07;7.57;;;37.20;40.50;;;;;;5095357;28;20042;-76
2021/06/19 13:45:57;;;;;;;8.55;7.28;;;37.00;40.40;;;;;;5109633;28;20482;-76
2021/06/19 13:48:43;;;;;;;8.45;7.03;;;36.90;40.60;;;;;;5093374;28;20032;-78
2021/06/19 13:51:30;;;;;;;8.10;7.28;;;36.80;40.90;;;;;;5079031;28;20043;-82
2021/06/19 13:54:16;;;;;;;8.68;7.07;;;36.70;41.30;;;;;;5111184;28;20032;-77
2021/06/19 13:57:02;;;;;;;8.55;7.40;;;36.70;41.30;;;;;;5117009;27;20070;-77
2021/06/19 13:59:50;;;;;;;8.07;7.15;;;36.80;41.40;;;;;;5132814;27;20031;-77
2021/06/19 14:02:36;;;;;;;8.00;7.13;;;36.90;41.20;;;;;;5102266;28;20032;-76
2021/06/19 14:05:03;;;;;;;7.93;6.88;;;37.00;41.30;;;;;;5111168;27;20096;-78
2021/06/19 14:07:28;;;;;;;9.05;6.95;;;37.20;41.90;;;;;;5110468;27;20074;-76
2021/06/19 14:09:54;;;;;;;7.38;6.60;;;37.30;41.30;;;;;;5112335;27;20055;-76
2021/06/19 14:12:20;;;;;;;7.60;7.00;;;37.40;41.10;;;;;;5106984;28;20103;-76
2021/06/19 14:14:45;;;;;;;10.63;7.55;;;37.50;40.50;;;;;;5090194;28;20134;-76
2021/06/19 14:17:12;;;;;;;11.18;7.82;;;37.50;40.70;;;;;;5113842;27;20026;-76
2021/06/19 14:19:37;;;;;;;8.70;7.90;;;37.60;40.70;;;;;;5084217;28;20264;-77
2021/06/19 14:22:03;;;;;;;7.63;6.90;;;37.70;41.30;;;;;;5112012;27;20285;-76
2021/06/19 14:24:29;;;;;;;8.38;7.43;;;37.80;40.30;;;;;;5110391;28;20066;-76
2021/06/19 14:27:06;;;;;;;7.90;7.10;;;37.80;40.60;;;;;;5107598;28;20019;-76
2021/06/19 14:29:31;;;;;;;9.38;6.78;;;37.90;40.40;;;;;;5120173;27;20503;-77